createdAt,value
2019-02-21T00:00:08.413Z,7.63
2019-02-21T00:02:37.316Z,8.80
2019-02-21T00:05:06.783Z,7.10
2019-02-21T00:07:35.506Z,9.17
2019-02-21T00:10:04.532Z,7.63
2019-02-21T00:12:33.286Z,7.60
2019-02-21T00:15:02.118Z,5.20
2019-02-21T00:17:30.938Z,5.50
2019-02-21T00:19:59.772Z,5.33
2019-02-21T00:22:28.499Z,5.63
2019-02-21T00:24:57.387Z,6.53
2019-02-21T00:27:26.270Z,8.20
2019-02-21T00:29:55.078Z,10.90
2019-02-21T00:32:23.869Z,4.87
2019-02-21T00:34:52.615Z,7.67
2019-02-21T00:37:21.323Z,7.20
2019-02-21T00:39:50.132Z,5.27
2019-02-21T00:42:18.883Z,4.73
2019-02-21T00:44:47.674Z,11.40
2019-02-21T00:47:16.571Z,6.70
2019-02-21T00:49:45.324Z,3.90
2019-02-21T00:52:14.068Z,6.37
2019-02-21T00:54:42.842Z,8.30
2019-02-21T00:57:11.624Z,6.20
2019-02-21T00:59:40.365Z,8.03
2019-02-21T01:02:09.252Z,7.03
2019-02-21T01:04:38.034Z,3.40
2019-02-21T01:07:06.783Z,4.10
2019-02-21T01:09:35.599Z,7.93
2019-02-21T01:12:04.332Z,7.93
2019-02-21T01:14:33.050Z,5.50
2019-02-21T01:17:01.900Z,5.90
2019-02-21T01:19:30.692Z,4.97
2019-02-21T01:21:59.471Z,4.60
2019-02-21T01:24:28.226Z,5.40
2019-02-21T01:26:56.981Z,6.70
2019-02-21T01:29:25.732Z,7.03
2019-02-21T01:31:54.628Z,7.67
2019-02-21T01:34:23.410Z,6.83
2019-02-21T01:36:52.244Z,7.60
2019-02-21T01:39:21.126Z,8.33
2019-02-21T01:41:49.930Z,5.37
2019-02-21T01:44:18.717Z,6.17
2019-02-21T01:46:47.620Z,6.77
2019-02-21T01:49:16.398Z,3.20
2019-02-21T01:51:45.187Z,12.63
2019-02-21T01:54:14.059Z,3.80
2019-02-21T01:56:42.899Z,7.97
2019-02-21T01:59:11.716Z,9.00
2019-02-21T02:01:40.551Z,8.83
2019-02-21T02:04:09.356Z,7.60
2019-02-21T02:06:38.103Z,6.47
2019-02-21T02:09:09.180Z,4.97
2019-02-21T02:11:37.915Z,3.63
2019-02-21T02:14:06.740Z,4.83
2019-02-21T02:16:35.524Z,3.70
2019-02-21T02:19:04.364Z,5.53
2019-02-21T02:21:33.121Z,5.30
2019-02-21T02:24:01.924Z,5.70
2019-02-21T02:26:30.739Z,4.07
2019-02-21T02:28:59.572Z,8.57
2019-02-21T02:31:28.418Z,4.90
2019-02-21T02:33:57.221Z,3.80
2019-02-21T02:36:25.980Z,9.63
2019-02-21T02:38:54.789Z,5.67
2019-02-21T02:41:23.526Z,4.47
2019-02-21T02:43:52.267Z,5.30
2019-02-21T02:46:21.109Z,5.43
2019-02-21T02:48:50.052Z,10.53
2019-02-21T02:51:18.834Z,4.53
2019-02-21T02:53:47.972Z,9.17
2019-02-21T02:56:16.803Z,5.63
2019-02-21T02:58:45.841Z,5.77
2019-02-21T03:01:14.785Z,10.40
2019-02-21T03:03:43.570Z,12.77
2019-02-21T03:06:12.700Z,12.90
2019-02-21T03:08:41.564Z,5.67
2019-02-21T03:11:10.332Z,9.03
2019-02-21T03:13:39.132Z,7.03
2019-02-21T03:16:08.006Z,10.07
2019-02-21T03:18:36.771Z,12.30
2019-02-21T03:21:05.621Z,10.83
2019-02-21T03:23:34.435Z,12.23
2019-02-21T03:26:03.206Z,11.57
2019-02-21T03:28:31.974Z,14.77
2019-02-21T03:31:00.789Z,14.90
2019-02-21T03:33:29.500Z,14.27
2019-02-21T03:35:58.326Z,13.77
2019-02-21T03:38:27.138Z,16.27
2019-02-21T03:40:55.957Z,20.70
2019-02-21T03:43:24.708Z,19.30
2019-02-21T03:45:53.494Z,20.47
2019-02-21T03:48:22.252Z,22.27
2019-02-21T03:50:51.037Z,19.60
2019-02-21T03:53:19.788Z,21.67
2019-02-21T03:55:48.587Z,17.33
2019-02-21T03:58:17.339Z,20.63
2019-02-21T04:00:46.174Z,27.43
2019-02-21T04:03:15.138Z,25.67
2019-02-21T04:05:43.900Z,24.07
2019-02-21T04:08:12.715Z,22.67
2019-02-21T04:10:41.469Z,20.17
2019-02-21T04:13:10.322Z,17.63
2019-02-21T04:15:39.228Z,21.47
2019-02-21T04:18:08.060Z,26.20
2019-02-21T04:20:36.882Z,22.10
2019-02-21T04:23:05.732Z,19.53
2019-02-21T04:25:34.544Z,23.63
2019-02-21T04:28:03.305Z,21.77
2019-02-21T04:30:32.165Z,22.30
2019-02-21T04:33:01.004Z,22.90
2019-02-21T04:35:29.822Z,21.53
2019-02-21T04:37:58.637Z,25.97
2019-02-21T04:40:27.333Z,23.30
2019-02-21T04:42:56.149Z,24.10
2019-02-21T04:45:25.020Z,23.70
2019-02-21T04:47:53.797Z,21.43
2019-02-21T04:50:22.683Z,20.50
2019-02-21T04:52:51.564Z,25.70
2019-02-21T04:55:20.324Z,21.87
2019-02-21T04:57:49.061Z,25.83
2019-02-21T05:00:17.922Z,24.83
2019-02-21T05:02:46.878Z,30.80
2019-02-21T05:05:15.651Z,20.23
2019-02-21T05:07:44.635Z,23.47
2019-02-21T05:10:13.370Z,30.43
2019-02-21T05:12:42.164Z,27.87
2019-02-21T05:15:13.913Z,18.87
2019-02-21T05:17:41.640Z,26.07
2019-02-21T05:20:10.458Z,26.77
2019-02-21T05:22:39.308Z,27.60
2019-02-21T05:25:08.069Z,26.93
2019-02-21T05:27:37.980Z,22.70
2019-02-21T05:30:10.486Z,22.57
2019-02-21T05:32:55.877Z,27.63
2019-02-21T05:35:41.684Z,32.53
2019-02-21T05:38:14.813Z,26.40
2019-02-21T05:40:57.204Z,28.57
2019-02-21T05:43:27.618Z,26.10
2019-02-21T05:46:14.284Z,25.33
2019-02-21T05:48:47.676Z,24.30
2019-02-21T05:51:18.333Z,25.80
2019-02-21T05:53:54.571Z,29.70
2019-02-21T05:56:24.966Z,24.97
2019-02-21T05:59:01.495Z,27.03
2019-02-21T06:01:48.380Z,25.73
2019-02-21T06:04:25.002Z,26.33
2019-02-21T06:06:55.411Z,24.30
2019-02-21T06:09:34.555Z,26.87
2019-02-21T06:12:17.317Z,25.10
2019-02-21T06:14:47.789Z,23.73
2019-02-21T06:17:36.497Z,26.63
2019-02-21T06:20:08.163Z,28.33
2019-02-21T06:22:41.314Z,29.97
2019-02-21T06:25:29.753Z,27.47
2019-02-21T06:27:58.744Z,21.93
2019-02-21T06:30:34.988Z,23.47
2019-02-21T06:33:05.278Z,31.97
2019-02-21T06:35:34.263Z,30.60
2019-02-21T06:38:03.100Z,33.30
2019-02-21T06:40:31.871Z,38.83
2019-02-21T06:43:00.612Z,29.47
2019-02-21T06:45:29.387Z,28.10
2019-02-21T06:47:58.149Z,31.27
2019-02-21T06:50:27.350Z,31.10
2019-02-21T06:52:56.244Z,31.13
2019-02-21T06:55:24.979Z,33.20
2019-02-21T06:57:53.739Z,37.37
2019-02-21T07:00:22.580Z,33.67
2019-02-21T07:02:51.339Z,30.50
2019-02-21T07:05:20.182Z,30.43
2019-02-21T07:07:49.890Z,26.70
2019-02-21T07:10:19.000Z,51.03
2019-02-21T07:12:47.834Z,36.07
2019-02-21T07:15:16.724Z,30.90
2019-02-21T07:17:49.367Z,32.67
2019-02-21T07:20:15.924Z,33.47
2019-02-21T07:22:44.690Z,41.03
2019-02-21T07:25:17.556Z,34.77
2019-02-21T07:27:46.356Z,36.07
2019-02-21T07:30:19.735Z,33.90
2019-02-21T07:32:45.716Z,33.37
2019-02-21T07:35:14.541Z,33.10
2019-02-21T07:37:43.454Z,28.47
2019-02-21T07:40:19.858Z,34.67
2019-02-21T07:42:42.667Z,35.50
2019-02-21T07:45:11.616Z,29.27
2019-02-21T07:47:40.445Z,29.77
2019-02-21T07:50:09.477Z,33.53
2019-02-21T07:52:38.355Z,31.33
2019-02-21T07:55:10.457Z,35.40
2019-02-21T07:57:38.891Z,38.00
2019-02-21T08:00:12.565Z,30.23
2019-02-21T08:02:41.402Z,36.53
2019-02-21T08:05:10.180Z,42.43
2019-02-21T08:07:38.996Z,35.97
2019-02-21T08:10:12.156Z,40.50
2019-02-21T08:12:41.061Z,36.43
2019-02-21T08:15:12.071Z,36.93
2019-02-21T08:17:40.935Z,35.50
2019-02-21T08:20:11.764Z,35.17
2019-02-21T08:22:40.684Z,41.43
2019-02-21T08:25:10.814Z,37.00
2019-02-21T08:27:42.351Z,41.67
2019-02-21T08:30:13.128Z,37.77
2019-02-21T08:32:43.548Z,32.70
2019-02-21T08:35:12.354Z,36.10
2019-02-21T08:37:41.261Z,35.40
2019-02-21T08:40:10.036Z,35.30
2019-02-21T08:42:38.860Z,40.37
2019-02-21T08:45:07.715Z,39.57
2019-02-21T08:47:36.493Z,38.07
2019-02-21T08:50:06.165Z,39.53
2019-02-21T08:52:35.020Z,39.30
2019-02-21T08:55:04.043Z,40.47
2019-02-21T08:57:32.814Z,38.27
2019-02-21T09:00:01.660Z,36.47
2019-02-21T09:02:30.444Z,40.00
2019-02-21T09:04:59.171Z,41.47
2019-02-21T09:07:28.063Z,34.87
2019-02-21T09:09:56.827Z,38.03
2019-02-21T09:12:25.589Z,37.33
2019-02-21T09:14:54.446Z,36.23
2019-02-21T09:17:23.204Z,34.53
2019-02-21T09:19:52.053Z,32.60
2019-02-21T09:22:20.860Z,31.80
2019-02-21T09:24:49.642Z,32.87
2019-02-21T09:27:18.478Z,41.07
2019-02-21T09:29:47.389Z,39.80
2019-02-21T09:32:16.196Z,35.97
2019-02-21T09:34:45.051Z,36.37
2019-02-21T09:37:13.932Z,42.70
2019-02-21T09:39:42.733Z,39.33
2019-02-21T09:42:11.555Z,37.03
2019-02-21T09:44:40.453Z,46.67
2019-02-21T09:47:09.315Z,38.47
2019-02-21T09:49:38.132Z,41.03
2019-02-21T09:52:07.045Z,33.33
2019-02-21T09:54:35.756Z,39.60
2019-02-21T09:57:12.956Z,34.50
2019-02-21T09:59:35.069Z,39.47
2019-02-21T10:02:03.794Z,35.53
2019-02-21T10:04:32.645Z,36.07
2019-02-21T10:07:01.444Z,42.87
2019-02-21T10:09:30.212Z,38.33
2019-02-21T10:11:59.205Z,36.03
2019-02-21T10:14:28.268Z,30.63
2019-02-21T10:16:57.103Z,36.77
2019-02-21T10:19:25.916Z,36.00
2019-02-21T10:21:54.770Z,36.40
2019-02-21T10:24:23.661Z,31.70
2019-02-21T10:26:52.509Z,30.50
2019-02-21T10:29:21.380Z,37.80
2019-02-21T10:31:50.219Z,31.50
2019-02-21T10:34:21.586Z,36.43
2019-02-21T10:36:49.540Z,34.00
2019-02-21T10:39:18.313Z,38.77
2019-02-21T10:41:47.123Z,34.70
2019-02-21T10:44:16.045Z,35.17
2019-02-21T10:46:44.918Z,32.57
2019-02-21T10:49:13.660Z,43.43
2019-02-21T10:51:42.539Z,37.43
2019-02-21T10:54:11.400Z,37.87
2019-02-21T10:56:40.237Z,36.07
2019-02-21T10:59:09.130Z,31.97
2019-02-21T11:01:37.972Z,58.83
2019-02-21T11:04:06.790Z,40.50
2019-02-21T11:06:35.614Z,37.67
2019-02-21T11:09:07.078Z,38.80
2019-02-21T11:11:35.836Z,36.83
2019-02-21T11:14:04.741Z,32.97
2019-02-21T11:16:33.589Z,39.30
2019-02-21T11:19:02.403Z,30.33
2019-02-21T11:21:31.292Z,32.40
2019-02-21T11:24:00.137Z,33.10
2019-02-21T11:26:28.900Z,37.10
2019-02-21T11:28:57.771Z,30.70
2019-02-21T11:31:27.876Z,28.33
2019-02-21T11:33:56.877Z,32.87
2019-02-21T11:36:25.789Z,29.50
2019-02-21T11:38:54.731Z,32.30
2019-02-21T11:41:23.556Z,29.70
2019-02-21T11:43:52.390Z,31.23
2019-02-21T11:46:21.124Z,25.70
2019-02-21T11:48:49.946Z,33.57
2019-02-21T11:51:18.859Z,29.00
2019-02-21T11:53:47.716Z,26.53
2019-02-21T11:56:16.534Z,26.33
2019-02-21T11:58:45.402Z,29.03
2019-02-21T12:01:14.188Z,24.70
2019-02-21T12:03:43.021Z,23.27
2019-02-21T12:06:11.932Z,26.60
2019-02-21T12:08:40.714Z,26.67
2019-02-21T12:11:09.452Z,22.43
2019-02-21T12:13:38.284Z,17.67
2019-02-21T12:16:07.124Z,24.80
2019-02-21T12:18:35.972Z,22.27
2019-02-21T12:21:04.968Z,22.53
2019-02-21T12:23:33.806Z,20.87
2019-02-21T12:26:02.626Z,21.83
2019-02-21T12:28:31.444Z,21.47
2019-02-21T12:31:00.284Z,19.03
2019-02-21T12:33:29.064Z,23.77
2019-02-21T12:35:59.522Z,17.83
2019-02-21T12:38:28.621Z,16.60
2019-02-21T12:40:57.453Z,17.70
2019-02-21T12:43:26.332Z,17.67
2019-02-21T12:45:58.123Z,21.90
2019-02-21T12:48:26.956Z,19.93
2019-02-21T12:50:55.796Z,16.37
2019-02-21T12:53:24.690Z,18.93
2019-02-21T12:55:53.442Z,15.70
2019-02-21T12:58:22.328Z,18.93
2019-02-21T13:00:51.173Z,20.13
2019-02-21T13:03:19.932Z,15.80
2019-02-21T13:05:48.772Z,18.23
2019-02-21T13:08:17.604Z,15.80
2019-02-21T13:10:46.356Z,19.13
2019-02-21T13:13:15.237Z,19.37
2019-02-21T13:15:43.988Z,18.30
2019-02-21T13:18:15.878Z,19.37
2019-02-21T13:20:43.368Z,17.47
2019-02-21T13:23:12.205Z,14.13
2019-02-21T13:25:41.003Z,16.47
2019-02-21T13:28:09.821Z,16.40
2019-02-21T13:30:38.668Z,21.60
2019-02-21T13:33:07.420Z,13.80
2019-02-21T13:35:36.283Z,16.20
2019-02-21T13:38:05.124Z,14.37
2019-02-21T13:40:33.910Z,17.50
2019-02-21T13:43:02.802Z,12.60
2019-02-21T13:45:31.654Z,15.80
2019-02-21T13:48:00.491Z,14.90
2019-02-21T13:50:29.380Z,9.37
2019-02-21T13:52:58.247Z,12.20
2019-02-21T13:55:27.077Z,10.40
2019-02-21T13:57:55.944Z,13.57
2019-02-21T14:00:25.014Z,15.27
2019-02-21T14:02:53.877Z,10.70
2019-02-21T14:05:22.722Z,12.07
2019-02-21T14:07:51.514Z,17.73
2019-02-21T14:10:20.341Z,20.73
2019-02-21T14:12:49.304Z,14.03
2019-02-21T14:15:24.259Z,12.70
2019-02-21T14:17:53.091Z,14.87
2019-02-21T14:20:21.917Z,14.57
2019-02-21T14:22:50.689Z,11.60
2019-02-21T14:25:19.492Z,15.30
2019-02-21T14:27:48.330Z,16.33
2019-02-21T14:30:21.492Z,13.00
2019-02-21T14:32:50.301Z,11.57
2019-02-21T14:35:19.199Z,19.60
2019-02-21T14:37:47.966Z,16.23
2019-02-21T14:40:17.626Z,15.37
2019-02-21T14:42:46.476Z,15.60
2019-02-21T14:45:20.517Z,10.77
2019-02-21T14:47:49.291Z,9.70
2019-02-21T14:50:18.069Z,10.53
2019-02-21T14:52:46.855Z,11.90
2019-02-21T14:55:17.634Z,10.97
2019-02-21T14:57:46.465Z,18.93
2019-02-21T15:00:23.348Z,19.47
2019-02-21T15:03:21.497Z,30.97
2019-02-21T15:05:42.018Z,23.43
2019-02-21T15:08:11.533Z,31.43
2019-02-21T15:10:40.292Z,9.93
2019-02-21T15:13:09.236Z,17.93
2019-02-21T15:15:38.011Z,18.80
2019-02-21T15:18:09.085Z,16.33
2019-02-21T15:20:37.440Z,17.63
2019-02-21T15:23:06.244Z,20.60
2019-02-21T15:25:35.123Z,28.50
2019-02-21T15:28:04.077Z,14.30
2019-02-21T15:30:32.916Z,12.27
2019-02-21T15:33:01.766Z,29.43
2019-02-21T15:35:30.643Z,16.53
2019-02-21T15:38:00.586Z,17.40
2019-02-21T15:40:29.612Z,17.30
2019-02-21T15:42:58.405Z,15.23
2019-02-21T15:45:29.003Z,14.43
2019-02-21T15:47:57.868Z,32.87
2019-02-21T15:50:30.023Z,15.77
2019-02-21T15:52:59.061Z,11.57
2019-02-21T15:55:28.012Z,16.30
2019-02-21T15:58:03.978Z,13.57
2019-02-21T16:00:27.421Z,14.63
2019-02-21T16:02:56.187Z,16.10
2019-02-21T16:05:32.551Z,13.03
2019-02-21T16:08:01.364Z,17.37
2019-02-21T16:10:30.226Z,14.20
2019-02-21T16:12:59.526Z,17.10
2019-02-21T16:15:28.507Z,19.40
2019-02-21T16:17:57.340Z,15.43
2019-02-21T16:20:26.303Z,14.60
2019-02-21T16:22:55.101Z,15.93
2019-02-21T16:25:28.619Z,15.07
2019-02-21T16:27:57.556Z,14.73
2019-02-21T16:30:26.404Z,16.53
2019-02-21T16:32:55.334Z,15.87
2019-02-21T16:35:24.230Z,20.07
2019-02-21T16:37:53.076Z,23.83
2019-02-21T16:40:21.940Z,18.10
2019-02-21T16:42:52.437Z,15.93
2019-02-21T16:45:22.442Z,17.23
2019-02-21T16:47:51.422Z,20.17
2019-02-21T16:50:29.192Z,15.07
2019-02-21T16:52:50.750Z,20.43
2019-02-21T16:55:21.091Z,14.67
2019-02-21T16:57:49.999Z,17.40
2019-02-21T17:00:20.068Z,19.97
2019-02-21T17:02:48.892Z,18.33
2019-02-21T17:05:17.907Z,22.80
2019-02-21T17:07:46.700Z,22.17
2019-02-21T17:10:18.230Z,17.67
2019-02-21T17:12:47.273Z,20.50
2019-02-21T17:15:18.235Z,20.00
2019-02-21T17:17:47.157Z,16.53
2019-02-21T17:20:20.757Z,16.63
2019-02-21T17:22:49.524Z,22.23
2019-02-21T17:25:18.306Z,20.27
2019-02-21T17:27:47.422Z,19.70
2019-02-21T17:30:17.419Z,22.37
2019-02-21T17:32:46.444Z,21.10
2019-02-21T17:35:15.419Z,25.73
2019-02-21T17:37:44.272Z,23.13
2019-02-21T17:40:24.262Z,22.13
2019-02-21T17:42:53.076Z,21.97
2019-02-21T17:45:22.324Z,23.73
2019-02-21T17:47:51.187Z,20.10
2019-02-21T17:50:20.652Z,21.50
2019-02-21T17:52:49.631Z,22.13
2019-02-21T17:55:18.833Z,20.13
2019-02-21T17:57:47.596Z,19.73
2019-02-21T18:00:23.476Z,23.00
2019-02-21T18:02:52.303Z,30.37
2019-02-21T18:05:21.295Z,22.17
2019-02-21T18:07:50.186Z,23.40
2019-02-21T18:10:19.188Z,22.23
2019-02-21T18:12:48.280Z,21.87
2019-02-21T18:15:18.284Z,23.80
2019-02-21T18:17:47.475Z,24.07
2019-02-21T18:20:16.917Z,24.90
2019-02-21T18:22:46.196Z,28.30
2019-02-21T18:25:36.163Z,25.60
2019-02-21T18:28:05.106Z,21.13
2019-02-21T18:30:34.112Z,21.80
2019-02-21T18:33:02.901Z,22.13
2019-02-21T18:35:31.868Z,20.87
2019-02-21T18:38:00.850Z,24.17
2019-02-21T18:40:29.742Z,21.03
2019-02-21T18:42:58.636Z,21.73
2019-02-21T18:45:27.558Z,31.30
2019-02-21T18:47:56.371Z,20.87
2019-02-21T18:50:25.276Z,25.33
2019-02-21T18:52:54.158Z,26.63
2019-02-21T18:55:23.134Z,23.93
2019-02-21T18:57:52.102Z,24.93
2019-02-21T19:00:24.966Z,21.73
2019-02-21T19:02:53.781Z,28.10
2019-02-21T19:05:22.875Z,20.53
2019-02-21T19:08:03.993Z,26.37
2019-02-21T19:10:23.395Z,26.80
2019-02-21T19:12:52.429Z,27.70
2019-02-21T19:15:21.852Z,30.97
2019-02-21T19:17:50.843Z,25.97
2019-02-21T19:20:21.020Z,28.03
2019-02-21T19:22:50.077Z,30.27
2019-02-21T19:25:19.066Z,29.20
2019-02-21T19:27:49.796Z,35.23
2019-02-21T19:30:25.770Z,30.33
2019-02-21T19:32:54.794Z,27.97
2019-02-21T19:35:23.738Z,33.53
2019-02-21T19:37:52.607Z,30.23
2019-02-21T19:40:21.508Z,31.97
2019-02-21T19:42:50.360Z,29.80
2019-02-21T19:45:19.291Z,30.60
2019-02-21T19:47:48.172Z,31.07
2019-02-21T19:50:17.252Z,30.47
2019-02-21T19:52:46.101Z,28.53
2019-02-21T19:55:15.354Z,34.67
2019-02-21T19:57:44.147Z,31.73
2019-02-21T20:00:16.444Z,32.63
2019-02-21T20:02:45.420Z,33.93
2019-02-21T20:05:14.923Z,30.93
2019-02-21T20:07:43.775Z,36.40
2019-02-21T20:10:12.608Z,39.37
2019-02-21T20:12:41.439Z,35.20
2019-02-21T20:15:12.484Z,36.47
2019-02-21T20:17:41.442Z,33.27
2019-02-21T20:20:25.054Z,37.10
2019-02-21T20:22:53.902Z,35.47
2019-02-21T20:25:22.741Z,35.73
2019-02-21T20:27:51.642Z,36.37
2019-02-21T20:30:20.846Z,34.37
2019-02-21T20:32:49.790Z,37.07
2019-02-21T20:35:18.644Z,34.40
2019-02-21T20:37:47.713Z,38.83
2019-02-21T20:40:16.452Z,36.03
2019-02-21T20:42:45.396Z,38.60
2019-02-21T20:45:15.392Z,31.57
2019-02-21T20:47:44.220Z,38.33
2019-02-21T20:50:13.265Z,34.60
2019-02-21T20:52:42.318Z,34.17
2019-02-21T20:55:12.150Z,32.67
2019-02-21T20:57:41.116Z,32.07
2019-02-21T21:00:15.628Z,31.87
2019-02-21T21:02:44.837Z,35.90
2019-02-21T21:05:14.680Z,34.13
2019-02-21T21:07:43.763Z,32.57
2019-02-21T21:10:14.952Z,36.40
2019-02-21T21:12:43.764Z,38.73
2019-02-21T21:15:13.887Z,36.37
2019-02-21T21:17:42.704Z,42.37
2019-02-21T21:20:17.048Z,40.17
2019-02-21T21:22:44.156Z,38.93
2019-02-21T21:25:15.215Z,41.67
2019-02-21T21:27:44.026Z,39.17
2019-02-21T21:30:17.613Z,38.67
2019-02-21T21:32:46.457Z,37.70
2019-02-21T21:35:15.301Z,40.10
2019-02-21T21:37:44.194Z,43.20
2019-02-21T21:40:17.371Z,41.10
2019-02-21T21:42:46.132Z,47.97
2019-02-21T21:45:16.513Z,44.60
2019-02-21T21:47:45.364Z,44.33
2019-02-21T21:50:16.506Z,41.80
2019-02-21T21:52:45.404Z,47.37
2019-02-21T21:55:14.357Z,43.37
2019-02-21T21:57:43.143Z,42.13
2019-02-21T22:00:14.987Z,45.97
2019-02-21T22:02:45.419Z,45.07
2019-02-21T22:05:14.334Z,39.90
2019-02-21T22:07:43.157Z,48.23
2019-02-21T22:10:13.491Z,41.33
2019-02-21T22:12:42.523Z,42.17
2019-02-21T22:15:16.923Z,44.00
2019-02-21T22:17:45.758Z,47.17
2019-02-21T22:20:14.518Z,42.50
2019-02-21T22:22:43.348Z,44.33
2019-02-21T22:25:13.268Z,45.67
2019-02-21T22:27:42.047Z,44.63
2019-02-21T22:30:13.795Z,44.03
2019-02-21T22:32:42.573Z,42.17
2019-02-21T22:35:11.411Z,43.27
2019-02-21T22:37:40.284Z,38.33
2019-02-21T22:40:11.891Z,44.53
2019-02-21T22:42:40.661Z,44.20
2019-02-21T22:45:10.333Z,43.30
2019-02-21T22:47:39.102Z,36.33
2019-02-21T22:50:15.658Z,38.20
2019-02-21T22:52:44.420Z,41.23
2019-02-21T22:55:13.225Z,38.93
2019-02-21T22:57:42.084Z,34.80
2019-02-21T23:00:36.757Z,36.87
2019-02-21T23:03:12.611Z,39.30
2019-02-21T23:05:55.859Z,39.03
2019-02-21T23:08:33.588Z,34.87
2019-02-21T23:11:02.427Z,35.53
2019-02-21T23:13:31.178Z,32.40
2019-02-21T23:16:00.084Z,32.73
2019-02-21T23:18:28.852Z,32.10
2019-02-21T23:20:57.684Z,32.83
2019-02-21T23:23:26.466Z,27.27
2019-02-21T23:25:55.307Z,28.77
2019-02-21T23:28:24.139Z,29.57
2019-02-21T23:30:53.044Z,29.37
2019-02-21T23:33:23.138Z,27.23
2019-02-21T23:35:51.981Z,30.53
2019-02-21T23:38:20.876Z,31.07
2019-02-21T23:40:49.628Z,24.73
2019-02-21T23:43:18.426Z,28.43
2019-02-21T23:45:47.316Z,26.13
2019-02-21T23:48:16.156Z,24.47
2019-02-21T23:50:44.979Z,24.10
2019-02-21T23:53:13.875Z,26.93
2019-02-21T23:55:42.723Z,24.20
2019-02-21T23:58:11.565Z,23.77
